createdAt,value
2023-03-16T00:00:22.695Z,247.70
2023-03-16T00:01:17.960Z,250.35
2023-03-16T00:02:13.131Z,251.88
2023-03-16T00:03:08.297Z,256.01
2023-03-16T00:04:03.428Z,258.23
2023-03-16T00:04:58.542Z,259.66
2023-03-16T00:05:53.592Z,260.69
2023-03-16T00:06:48.919Z,263.83
2023-03-16T00:07:43.972Z,267.05
2023-03-16T00:08:39.305Z,268.58
2023-03-16T00:09:34.495Z,267.71
2023-03-16T00:10:29.764Z,267.93
2023-03-16T00:11:24.888Z,266.84
2023-03-16T00:12:20.032Z,269.24
2023-03-16T00:13:15.227Z,270.13
2023-03-16T00:14:10.672Z,270.13
2023-03-16T00:15:05.647Z,271.92
2023-03-16T00:16:00.973Z,273.51
2023-03-16T00:16:56.001Z,272.83
2023-03-16T00:17:51.173Z,276.04
2023-03-16T00:18:46.448Z,278.15
2023-03-16T00:19:41.496Z,277.44
2023-03-16T00:20:36.614Z,278.62
2023-03-16T00:21:31.899Z,277.44
2023-03-16T00:22:27.241Z,277.21
2023-03-16T00:23:22.276Z,275.58
2023-03-16T00:24:17.479Z,273.28
2023-03-16T00:25:12.656Z,273.74
2023-03-16T00:26:07.800Z,272.60
2023-03-16T00:27:02.999Z,271.47
2023-03-16T00:27:58.293Z,269.24
2023-03-16T00:28:53.402Z,269.02
2023-03-16T00:29:48.462Z,266.40
2023-03-16T00:30:43.548Z,265.54
2023-03-16T00:31:38.703Z,264.68
2023-03-16T00:32:33.935Z,263.83
2023-03-16T00:33:29.108Z,260.27
2023-03-16T00:34:24.402Z,260.69
2023-03-16T00:35:19.413Z,260.90
2023-03-16T00:36:14.703Z,258.84
2023-03-16T00:37:09.912Z,260.27
2023-03-16T00:38:05.172Z,259.66
2023-03-16T00:39:00.165Z,259.66
2023-03-16T00:39:55.321Z,258.63
2023-03-16T00:40:50.440Z,258.84
2023-03-16T00:41:45.760Z,258.02
2023-03-16T00:42:40.967Z,255.81
2023-03-16T00:43:36.098Z,253.05
2023-03-16T00:44:31.385Z,255.21
2023-03-16T00:45:26.425Z,256.41
2023-03-16T00:46:21.573Z,257.01
2023-03-16T00:47:16.775Z,256.81
2023-03-16T00:48:11.946Z,256.41
2023-03-16T00:49:07.117Z,256.21
2023-03-16T00:50:02.226Z,255.41
2023-03-16T00:50:57.496Z,255.01
2023-03-16T00:51:52.585Z,252.66
2023-03-16T00:52:47.895Z,253.44
2023-03-16T00:53:42.895Z,252.46
2023-03-16T00:54:38.195Z,254.23
2023-03-16T00:55:33.186Z,256.01
2023-03-16T00:56:28.422Z,258.23
2023-03-16T00:57:23.540Z,256.81
2023-03-16T00:58:18.831Z,258.43
2023-03-16T00:59:13.954Z,259.25
2023-03-16T01:00:09.142Z,259.86
2023-03-16T01:01:04.341Z,262.36
2023-03-16T01:01:59.474Z,263.20
2023-03-16T01:02:54.834Z,265.54
2023-03-16T01:03:49.876Z,266.84
2023-03-16T01:04:45.127Z,268.80
2023-03-16T01:05:40.306Z,267.71
2023-03-16T01:06:35.468Z,268.36
2023-03-16T01:07:30.666Z,267.71
2023-03-16T01:08:25.846Z,266.40
2023-03-16T01:09:20.986Z,267.93
2023-03-16T01:10:16.160Z,265.11
2023-03-16T01:11:11.284Z,263.41
2023-03-16T01:12:06.565Z,261.10
2023-03-16T01:13:01.712Z,259.45
2023-03-16T01:13:56.996Z,260.27
2023-03-16T01:14:52.253Z,259.66
2023-03-16T01:15:47.419Z,257.62
2023-03-16T01:16:42.739Z,257.42
2023-03-16T01:17:37.829Z,255.81
2023-03-16T01:18:33.138Z,257.01
2023-03-16T01:19:28.155Z,257.42
2023-03-16T01:20:23.305Z,258.02
2023-03-16T01:21:18.568Z,256.61
2023-03-16T01:22:13.704Z,255.61
2023-03-16T01:23:08.894Z,255.41
2023-03-16T01:24:04.018Z,257.42
2023-03-16T01:24:59.385Z,257.62
2023-03-16T01:25:54.433Z,258.63
2023-03-16T01:26:49.691Z,260.69
2023-03-16T01:27:45.027Z,264.05
2023-03-16T01:28:40.032Z,264.90
2023-03-16T01:29:35.191Z,268.80
2023-03-16T01:30:30.398Z,268.36
2023-03-16T01:31:25.522Z,271.02
2023-03-16T01:32:20.822Z,271.47
2023-03-16T01:33:15.996Z,275.58
2023-03-16T01:34:11.124Z,276.74
2023-03-16T01:35:06.358Z,280.77
2023-03-16T01:36:01.630Z,275.81
2023-03-16T01:36:56.572Z,279.57
2023-03-16T01:37:51.888Z,280.77
2023-03-16T01:38:46.889Z,283.43
2023-03-16T01:39:42.133Z,284.91
2023-03-16T01:40:37.265Z,286.40
2023-03-16T01:41:32.538Z,284.66
2023-03-16T01:42:27.678Z,283.68
2023-03-16T01:43:22.869Z,282.70
2023-03-16T01:44:18.017Z,279.33
2023-03-16T01:45:13.459Z,276.27
2023-03-16T01:46:09.270Z,273.97
2023-03-16T01:47:04.450Z,271.47
2023-03-16T01:47:59.666Z,270.80
2023-03-16T01:48:54.853Z,270.80
2023-03-16T01:49:50.104Z,268.36
2023-03-16T01:50:45.295Z,269.24
2023-03-16T01:51:40.452Z,271.02
2023-03-16T01:52:35.617Z,271.02
2023-03-16T01:53:30.954Z,271.47
2023-03-16T01:54:26.008Z,273.74
2023-03-16T01:55:21.280Z,276.74
2023-03-16T01:56:16.354Z,277.91
2023-03-16T01:58:38.413Z,256.61
2023-03-16T01:59:33.484Z,269.24
2023-03-16T02:00:28.745Z,278.62
2023-03-16T02:01:23.833Z,288.16
2023-03-16T02:02:18.900Z,290.97
2023-03-16T02:03:14.302Z,295.43
2023-03-16T02:04:09.361Z,298.38
2023-03-16T02:05:04.600Z,302.51
2023-03-16T02:05:59.749Z,303.63
2023-03-16T02:06:54.911Z,306.18
2023-03-16T02:07:50.079Z,308.48
2023-03-16T02:08:45.355Z,308.19
2023-03-16T02:09:40.390Z,309.94
2023-03-16T02:10:35.533Z,309.35
2023-03-16T02:11:30.708Z,312.60
2023-03-16T02:12:25.869Z,309.94
2023-03-16T02:13:21.174Z,311.70
2023-03-16T02:14:16.186Z,308.19
2023-03-16T02:15:11.408Z,307.90
2023-03-16T02:16:06.562Z,308.77
2023-03-16T02:17:01.718Z,306.18
2023-03-16T02:17:56.915Z,306.18
2023-03-16T02:18:52.233Z,307.04
2023-03-16T02:19:47.279Z,306.46
2023-03-16T02:20:42.559Z,303.91
2023-03-16T02:21:37.725Z,303.35
2023-03-16T02:22:32.889Z,302.79
2023-03-16T02:23:28.090Z,304.19
2023-03-16T02:24:23.311Z,305.61
2023-03-16T02:25:18.425Z,305.32
2023-03-16T02:26:13.565Z,303.35
2023-03-16T02:27:08.708Z,301.67
2023-03-16T02:28:04.043Z,299.74
2023-03-16T02:28:59.321Z,301.40
2023-03-16T02:29:54.385Z,300.02
2023-03-16T02:30:49.572Z,301.95
2023-03-16T02:31:44.732Z,304.19
2023-03-16T02:32:39.962Z,307.61
2023-03-16T02:33:35.264Z,307.90
2023-03-16T02:34:30.326Z,307.90
2023-03-16T02:35:25.487Z,301.40
2023-03-16T02:36:20.629Z,288.67
2023-03-16T02:37:15.786Z,290.46
2023-03-16T02:38:10.958Z,289.94
2023-03-16T02:39:06.270Z,293.84
2023-03-16T02:40:01.295Z,294.10
2023-03-16T02:40:56.425Z,293.84
2023-03-16T02:41:51.559Z,295.96
2023-03-16T02:42:46.838Z,295.43
2023-03-16T02:43:41.995Z,295.96
2023-03-16T02:45:53.934Z,269.24
2023-03-16T02:46:49.140Z,286.65
2023-03-16T02:47:44.328Z,295.16
2023-03-16T02:48:39.711Z,299.47
2023-03-16T02:49:34.775Z,301.95
2023-03-16T02:50:30.048Z,306.75
2023-03-16T02:51:25.170Z,309.64
2023-03-16T02:52:20.348Z,311.41
2023-03-16T02:53:15.536Z,315.60
2023-03-16T02:54:10.849Z,314.39
2023-03-16T02:55:05.863Z,318.67
2023-03-16T02:56:01.112Z,319.29
2023-03-16T02:56:56.318Z,321.16
2023-03-16T02:57:51.514Z,321.16
2023-03-16T02:58:46.770Z,320.85
2023-03-16T02:59:41.954Z,320.22
2023-03-16T03:00:37.196Z,322.74
2023-03-16T03:01:32.444Z,320.85
2023-03-16T03:02:27.632Z,320.54
2023-03-16T03:03:22.867Z,320.22
2023-03-16T03:04:18.162Z,318.36
2023-03-16T03:05:13.341Z,319.60
2023-03-16T03:06:08.688Z,318.05
2023-03-16T03:07:03.778Z,315.91
2023-03-16T03:07:59.113Z,315.60
2023-03-16T03:08:54.507Z,314.09
2023-03-16T03:09:49.592Z,313.49
2023-03-16T03:10:44.772Z,313.49
2023-03-16T03:11:39.998Z,312.60
2023-03-16T03:12:35.203Z,312.60
2023-03-16T03:13:30.419Z,310.82
2023-03-16T03:14:25.642Z,312.30
2023-03-16T03:15:20.964Z,311.11
2023-03-16T03:16:16.411Z,312.00
2023-03-16T03:17:11.480Z,313.49
2023-03-16T03:18:06.848Z,312.00
2023-03-16T03:19:01.944Z,314.09
2023-03-16T03:19:57.122Z,311.11
2023-03-16T03:20:52.474Z,312.00
2023-03-16T03:21:47.701Z,313.49
2023-03-16T03:22:42.893Z,310.52
2023-03-16T03:23:38.272Z,310.23
2023-03-16T03:24:33.382Z,315.30
2023-03-16T03:25:28.604Z,317.13
2023-03-16T03:26:23.947Z,320.22
2023-03-16T03:27:19.030Z,317.13
2023-03-16T03:28:14.429Z,318.98
2023-03-16T03:29:09.539Z,318.05
2023-03-16T03:30:04.740Z,285.40
2023-03-16T03:30:59.946Z,270.58
2023-03-16T03:31:55.224Z,268.80
2023-03-16T03:32:50.455Z,273.74
2023-03-16T03:33:45.726Z,280.05
2023-03-16T03:34:40.940Z,281.25
2023-03-16T03:35:36.315Z,287.66
2023-03-16T03:36:31.662Z,289.94
2023-03-16T03:37:26.824Z,294.10
2023-03-16T03:38:22.036Z,300.29
2023-03-16T03:39:17.264Z,304.76
2023-03-16T03:40:12.438Z,305.32
2023-03-16T03:41:07.666Z,306.75
2023-03-16T03:42:03.067Z,309.06
2023-03-16T03:42:58.138Z,308.77
2023-03-16T03:43:53.302Z,309.35
2023-03-16T03:44:48.557Z,310.82
2023-03-16T03:45:43.774Z,306.75
2023-03-16T03:46:39.183Z,304.76
2023-03-16T03:47:34.286Z,302.79
2023-03-16T03:48:29.292Z,303.35
2023-03-16T03:49:24.459Z,305.89
2023-03-16T03:50:19.608Z,305.61
2023-03-16T03:51:14.763Z,309.35
2023-03-16T03:52:10.197Z,301.40
2023-03-16T03:53:05.275Z,287.66
2023-03-16T03:54:00.509Z,284.17
2023-03-16T03:54:55.793Z,285.65
2023-03-16T03:55:51.030Z,284.66
2023-03-16T03:56:46.381Z,285.90
2023-03-16T03:57:41.694Z,288.42
2023-03-16T03:58:36.758Z,288.42
2023-03-16T03:59:31.992Z,292.01
2023-03-16T04:00:27.420Z,289.69
2023-03-16T04:01:22.453Z,284.17
2023-03-16T04:02:17.948Z,288.67
2023-03-16T04:03:12.972Z,293.31
2023-03-16T04:04:08.110Z,298.65
2023-03-16T04:05:03.361Z,298.65
2023-03-16T04:05:58.542Z,302.79
2023-03-16T04:06:53.915Z,305.61
2023-03-16T04:07:49.001Z,292.27
2023-03-16T04:08:44.337Z,278.62
2023-03-16T04:09:39.547Z,278.15
2023-03-16T04:10:34.891Z,278.62
2023-03-16T04:11:30.094Z,284.17
2023-03-16T04:12:25.349Z,285.90
2023-03-16T04:13:20.707Z,291.75
2023-03-16T04:14:16.500Z,287.40
2023-03-16T04:15:11.720Z,278.15
2023-03-16T04:16:06.940Z,278.62
2023-03-16T04:17:02.496Z,282.21
2023-03-16T04:17:57.610Z,244.74
2023-03-16T04:18:52.803Z,149.13
2023-03-16T04:19:48.104Z,139.76
2023-03-16T04:20:43.336Z,141.18
2023-03-16T04:21:38.705Z,141.06
2023-03-16T04:22:33.942Z,147.42
2023-03-16T04:23:29.132Z,161.39
2023-03-16T04:24:24.376Z,178.29
2023-03-16T04:25:19.656Z,190.80
2023-03-16T04:26:14.886Z,206.28
2023-03-16T04:27:10.108Z,221.75
2023-03-16T04:28:05.331Z,234.76
2023-03-16T04:29:00.528Z,245.29
2023-03-16T04:29:55.770Z,256.41
2023-03-16T04:30:51.267Z,261.73
2023-03-16T04:31:46.339Z,265.11
2023-03-16T04:32:41.675Z,265.11
2023-03-16T04:33:36.777Z,270.13
2023-03-16T04:34:32.137Z,273.51
2023-03-16T04:35:27.241Z,208.11
2023-03-16T04:36:22.657Z,175.29
2023-03-16T04:37:17.788Z,184.79
2023-03-16T04:38:12.994Z,191.81
2023-03-16T04:39:08.184Z,194.31
2023-03-16T04:40:03.417Z,211.46
2023-03-16T04:40:58.783Z,228.23
2023-03-16T04:41:53.983Z,242.57
2023-03-16T04:42:49.222Z,250.54
2023-03-16T04:43:44.480Z,257.82
2023-03-16T04:44:39.766Z,263.62
2023-03-16T04:45:36.277Z,267.05
2023-03-16T04:46:31.577Z,266.40
2023-03-16T04:47:26.772Z,262.57
2023-03-16T04:48:21.988Z,259.04
2023-03-16T04:49:17.202Z,263.20
2023-03-16T04:50:16.757Z,262.78
2023-03-16T04:51:12.029Z,268.14
2023-03-16T04:52:07.072Z,267.71
2023-03-16T04:53:02.311Z,266.62
2023-03-16T04:53:57.680Z,266.19
2023-03-16T04:54:52.894Z,265.33
2023-03-16T04:55:48.286Z,265.97
2023-03-16T04:56:43.265Z,265.76
2023-03-16T04:57:38.623Z,265.76
2023-03-16T04:58:33.739Z,266.40
2023-03-16T04:59:28.931Z,268.14
2023-03-16T05:00:24.185Z,268.80
2023-03-16T05:01:19.413Z,270.58
2023-03-16T05:02:14.625Z,269.91
2023-03-16T05:03:09.792Z,269.24
2023-03-16T05:04:05.123Z,268.14
2023-03-16T05:05:00.262Z,268.36
2023-03-16T05:05:55.568Z,266.40
2023-03-16T05:06:50.667Z,267.27
2023-03-16T05:07:45.857Z,262.57
2023-03-16T05:08:40.984Z,259.04
2023-03-16T05:09:36.273Z,258.84
2023-03-16T05:10:31.471Z,260.90
2023-03-16T05:11:26.649Z,265.33
2023-03-16T05:12:21.972Z,270.58
2023-03-16T05:13:17.029Z,275.58
2023-03-16T05:14:12.190Z,276.51
2023-03-16T05:15:07.546Z,276.97
2023-03-16T05:16:02.820Z,278.15
2023-03-16T05:16:58.065Z,281.25
2023-03-16T05:17:53.180Z,277.91
2023-03-16T05:18:48.318Z,272.37
2023-03-16T05:19:43.294Z,274.65
2023-03-16T05:20:38.390Z,278.15
2023-03-16T05:21:33.523Z,279.81
2023-03-16T05:22:28.495Z,276.51
2023-03-16T05:23:23.562Z,275.11
2023-03-16T05:24:18.683Z,278.62
2023-03-16T05:25:13.767Z,264.05
2023-03-16T05:26:09.039Z,247.33
2023-03-16T05:27:03.890Z,250.73
2023-03-16T05:27:58.949Z,253.05
2023-03-16T05:28:54.125Z,257.42
2023-03-16T05:29:49.382Z,259.04
2023-03-16T05:30:44.559Z,262.78
2023-03-16T05:31:39.497Z,271.92
2023-03-16T05:32:34.499Z,275.35
2023-03-16T05:33:29.508Z,280.29
2023-03-16T05:34:24.532Z,284.91
2023-03-16T05:35:19.584Z,284.17
2023-03-16T05:36:14.871Z,272.83
2023-03-16T05:37:09.991Z,261.73
2023-03-16T05:38:05.282Z,254.42
2023-03-16T05:39:00.676Z,257.82
2023-03-16T05:39:55.996Z,260.90
2023-03-16T05:40:51.525Z,266.62
2023-03-16T05:41:46.718Z,267.49
2023-03-16T05:42:42.051Z,271.92
2023-03-16T05:43:37.365Z,275.11
2023-03-16T05:44:32.700Z,281.49
2023-03-16T05:45:28.086Z,279.81
2023-03-16T05:46:26.125Z,272.83
2023-03-16T05:47:21.388Z,251.11
2023-03-16T05:48:16.725Z,241.50
2023-03-16T05:49:12.103Z,232.60
2023-03-16T05:50:07.580Z,238.00
2023-03-16T05:51:03.342Z,246.58
2023-03-16T05:51:58.829Z,249.21
2023-03-16T05:52:54.177Z,252.08
2023-03-16T05:53:49.563Z,252.66
2023-03-16T05:54:44.919Z,250.73
2023-03-16T05:55:40.417Z,249.77
2023-03-16T05:56:35.672Z,255.81
2023-03-16T05:57:31.001Z,257.21
2023-03-16T05:58:26.360Z,251.30
2023-03-16T05:59:21.736Z,249.58
2023-03-16T06:00:17.121Z,250.73
2023-03-16T06:01:12.727Z,254.62
2023-03-16T06:02:07.835Z,252.46
2023-03-16T06:03:03.274Z,252.85
2023-03-16T06:03:58.640Z,254.42
2023-03-16T06:04:53.930Z,255.01
2023-03-16T06:05:49.519Z,253.83
2023-03-16T06:06:44.832Z,247.14
2023-03-16T06:07:40.204Z,245.66
2023-03-16T06:08:35.646Z,225.56
2023-03-16T06:09:35.411Z,214.36
2023-03-16T06:10:30.855Z,216.20
2023-03-16T06:11:26.099Z,220.86
2023-03-16T06:12:21.491Z,213.11
2023-03-16T06:13:17.043Z,207.85
2023-03-16T06:14:12.428Z,211.33
2023-03-16T06:15:07.877Z,216.06
2023-03-16T06:16:03.445Z,223.72
2023-03-16T06:16:58.758Z,229.35
2023-03-16T06:17:54.368Z,234.43
2023-03-16T06:18:49.865Z,237.31
2023-03-16T06:19:45.269Z,162.49
2023-03-16T06:20:40.795Z,142.87
2023-03-16T06:21:36.180Z,162.01
2023-03-16T06:22:31.695Z,180.99
2023-03-16T06:23:26.738Z,192.48
2023-03-16T06:24:21.772Z,204.22
2023-03-16T06:25:16.981Z,213.80
2023-03-16T06:26:11.912Z,219.67
2023-03-16T06:27:06.961Z,224.02
2023-03-16T06:28:02.010Z,225.41
2023-03-16T06:28:57.106Z,225.10
2023-03-16T06:29:52.171Z,223.41
2023-03-16T06:30:47.247Z,223.11
2023-03-16T06:31:42.428Z,227.12
2023-03-16T06:32:37.387Z,228.55
2023-03-16T06:33:32.473Z,229.35
2023-03-16T06:34:27.491Z,228.55
2023-03-16T06:35:22.695Z,224.18
2023-03-16T06:36:17.594Z,218.36
2023-03-16T06:37:12.656Z,212.97
2023-03-16T06:38:07.699Z,205.12
2023-03-16T06:39:02.754Z,163.28
2023-03-16T06:39:57.808Z,133.07
2023-03-16T06:40:52.902Z,131.19
2023-03-16T06:41:47.920Z,140.35
2023-03-16T06:42:46.612Z,147.81
2023-03-16T06:43:39.458Z,155.09
2023-03-16T06:44:35.059Z,163.60
2023-03-16T06:45:30.481Z,172.39
2023-03-16T06:46:26.025Z,181.39
2023-03-16T06:47:21.500Z,186.36
2023-03-16T06:48:16.898Z,189.59
2023-03-16T06:49:12.320Z,191.25
2023-03-16T06:50:07.851Z,193.39
2023-03-16T06:51:03.296Z,194.65
2023-03-16T06:51:58.767Z,195.35
2023-03-16T06:52:54.234Z,199.99
2023-03-16T06:53:49.689Z,196.16
2023-03-16T06:54:45.136Z,200.73
2023-03-16T06:55:44.582Z,203.34
2023-03-16T06:56:39.773Z,212.15
2023-03-16T06:57:35.643Z,217.63
2023-03-16T06:58:31.250Z,210.51
2023-03-16T06:59:26.571Z,218.07
2023-03-16T07:00:22.182Z,228.07
2023-03-16T07:01:17.886Z,240.09
2023-03-16T07:02:13.138Z,248.26
2023-03-16T07:03:08.570Z,250.92
2023-03-16T07:04:04.075Z,254.62
2023-03-16T07:04:59.799Z,261.73
2023-03-16T07:05:54.544Z,252.66
2023-03-16T07:06:49.597Z,250.35
2023-03-16T07:07:44.774Z,248.26
2023-03-16T07:08:39.897Z,246.40
2023-03-16T07:09:38.205Z,247.14
2023-03-16T07:10:30.282Z,248.07
2023-03-16T07:11:25.108Z,249.58
2023-03-16T07:12:20.172Z,254.62
2023-03-16T07:13:15.225Z,254.42
2023-03-16T07:14:10.290Z,260.27
2023-03-16T07:15:05.474Z,263.20
2023-03-16T07:16:02.138Z,259.45
2023-03-16T07:16:57.653Z,256.21
2023-03-16T07:17:53.100Z,264.05
2023-03-16T07:18:48.545Z,274.65
2023-03-16T07:19:44.368Z,284.17
2023-03-16T07:20:39.699Z,290.20
2023-03-16T07:21:35.316Z,290.46
2023-03-16T07:22:30.755Z,289.43
2023-03-16T07:23:26.203Z,286.15
2023-03-16T07:24:21.698Z,281.73
2023-03-16T07:25:17.290Z,282.46
2023-03-16T07:26:12.468Z,282.46
2023-03-16T07:27:07.963Z,280.05
2023-03-16T07:28:03.497Z,279.33
2023-03-16T07:28:58.577Z,285.65
2023-03-16T07:29:53.854Z,293.05
2023-03-16T07:31:02.934Z,301.40
2023-03-16T07:31:44.962Z,301.95
2023-03-16T07:32:39.054Z,292.27
2023-03-16T07:33:33.956Z,229.99
2023-03-16T07:34:29.149Z,206.67
2023-03-16T07:35:24.351Z,212.28
2023-03-16T07:36:19.423Z,232.76
2023-03-16T07:37:14.394Z,246.03
2023-03-16T07:38:09.525Z,250.92
2023-03-16T07:39:04.557Z,258.63
2023-03-16T07:39:59.675Z,264.26
2023-03-16T07:40:54.806Z,272.83
2023-03-16T07:41:49.783Z,278.62
2023-03-16T07:42:44.780Z,281.49
2023-03-16T07:43:39.986Z,284.91
2023-03-16T07:44:35.091Z,286.15
2023-03-16T07:45:30.263Z,286.15
2023-03-16T07:46:25.351Z,288.92
2023-03-16T07:47:20.738Z,286.90
2023-03-16T07:48:16.190Z,292.27
2023-03-16T07:49:11.604Z,289.43
2023-03-16T07:50:07.020Z,288.16
2023-03-16T07:51:02.552Z,294.10
2023-03-16T07:51:58.023Z,305.04
2023-03-16T07:52:53.600Z,312.30
2023-03-16T07:53:48.879Z,308.19
2023-03-16T07:54:44.695Z,304.19
2023-03-16T07:55:40.005Z,303.63
2023-03-16T07:56:47.890Z,305.32
2023-03-16T07:58:56.591Z,325.30
2023-03-16T07:59:50.304Z,331.88
2023-03-16T08:00:45.593Z,348.08
2023-03-16T08:01:41.072Z,348.45
2023-03-16T08:02:36.534Z,352.19
2023-03-16T08:03:32.334Z,339.44
2023-03-16T08:04:27.583Z,351.06
2023-03-16T08:05:22.999Z,350.31
2023-03-16T08:06:18.424Z,349.56
2023-03-16T08:07:13.883Z,352.95
2023-03-16T08:08:09.436Z,349.93
2023-03-16T08:09:04.858Z,350.31
2023-03-16T08:10:00.332Z,344.79
2023-03-16T08:10:56.736Z,338.04
2023-03-16T08:11:51.257Z,331.88
2023-03-16T08:12:46.802Z,318.98
2023-03-16T08:13:42.296Z,317.74
2023-03-16T08:14:37.946Z,317.43
2023-03-16T08:15:33.122Z,325.30
2023-03-16T08:16:28.634Z,327.90
2023-03-16T08:17:24.028Z,325.62
2023-03-16T08:18:19.616Z,335.27
2023-03-16T08:19:15.186Z,353.33
2023-03-16T08:20:10.526Z,368.40
2023-03-16T08:21:06.019Z,375.57
2023-03-16T08:22:02.152Z,377.30
2023-03-16T08:22:56.859Z,381.27
2023-03-16T08:23:52.355Z,371.32
2023-03-16T08:24:47.846Z,351.81
2023-03-16T08:25:43.367Z,346.97
2023-03-16T08:26:39.617Z,347.71
2023-03-16T08:27:34.229Z,351.43
2023-03-16T08:28:29.893Z,354.09
2023-03-16T08:29:25.373Z,350.68
2023-03-16T08:30:20.800Z,348.08
2023-03-16T08:31:16.442Z,338.39
2023-03-16T08:32:11.747Z,339.44
2023-03-16T08:33:07.305Z,343.34
2023-03-16T08:34:02.759Z,343.70
2023-03-16T08:34:58.388Z,352.19
2023-03-16T08:35:53.743Z,362.30
2023-03-16T08:36:49.178Z,367.58
2023-03-16T08:37:44.614Z,359.91
2023-03-16T08:38:40.035Z,354.85
2023-03-16T08:39:35.605Z,349.19
2023-03-16T08:40:31.270Z,345.51
2023-03-16T08:41:26.473Z,341.91
2023-03-16T08:42:21.965Z,337.34
2023-03-16T08:43:17.401Z,322.42
2023-03-16T08:44:12.898Z,328.56
2023-03-16T08:45:08.547Z,332.89
2023-03-16T08:46:04.004Z,334.25
2023-03-16T08:46:59.356Z,335.96
2023-03-16T08:47:54.914Z,324.02
2023-03-16T08:48:50.379Z,327.25
2023-03-16T08:49:46.082Z,328.89
2023-03-16T08:50:41.316Z,336.65
2023-03-16T08:51:36.782Z,336.30
2023-03-16T08:52:32.294Z,335.62
2023-03-16T08:53:27.916Z,334.93
2023-03-16T08:54:23.592Z,333.57
2023-03-16T08:55:19.013Z,326.27
2023-03-16T08:56:14.566Z,320.54
2023-03-16T08:57:10.057Z,313.79
2023-03-16T08:58:05.581Z,319.60
2023-03-16T08:59:01.129Z,313.79
2023-03-16T08:59:56.685Z,317.74
2023-03-16T09:00:52.082Z,332.89
2023-03-16T09:01:47.662Z,343.34
2023-03-16T09:02:43.146Z,350.31
2023-03-16T09:03:38.542Z,358.73
2023-03-16T09:04:34.275Z,365.93
2023-03-16T09:05:29.521Z,367.58
2023-03-16T09:06:25.088Z,363.91
2023-03-16T09:07:20.678Z,364.31
2023-03-16T09:08:16.232Z,345.88
2023-03-16T09:09:11.950Z,351.06
2023-03-16T09:10:07.283Z,358.73
2023-03-16T09:11:02.725Z,364.71
2023-03-16T09:11:58.216Z,368.81
2023-03-16T09:12:53.740Z,361.90
2023-03-16T09:13:50.684Z,367.99
2023-03-16T09:14:44.672Z,361.10
2023-03-16T09:15:40.420Z,359.13
2023-03-16T09:16:35.961Z,353.33
2023-03-16T09:17:31.245Z,355.24
2023-03-16T09:18:26.815Z,352.95
2023-03-16T09:19:22.538Z,338.04
2023-03-16T09:20:33.438Z,333.57
2023-03-16T09:21:14.174Z,341.56
2023-03-16T09:22:08.612Z,351.06
2023-03-16T09:23:04.091Z,358.73
2023-03-16T09:23:59.823Z,348.08
2023-03-16T09:24:54.969Z,370.48
2023-03-16T09:25:50.404Z,397.87
2023-03-16T09:26:46.098Z,415.99
2023-03-16T09:27:41.433Z,417.55
2023-03-16T09:28:36.911Z,431.61
2023-03-16T09:29:32.592Z,433.01
2023-03-16T09:30:28.389Z,431.05
2023-03-16T09:31:23.678Z,431.89
2023-03-16T09:32:19.170Z,423.92
2023-03-16T09:33:14.645Z,420.18
2023-03-16T09:34:10.188Z,408.10
2023-03-16T09:35:05.736Z,394.34
2023-03-16T09:36:01.409Z,396.45
2023-03-16T09:36:56.699Z,395.04
2023-03-16T09:38:05.259Z,389.96
2023-03-16T09:38:48.550Z,386.57
2023-03-16T09:39:42.923Z,375.14
2023-03-16T09:40:38.438Z,370.48
2023-03-16T09:41:33.959Z,368.40
2023-03-16T09:42:29.372Z,367.58
2023-03-16T09:43:24.865Z,363.10
2023-03-16T09:44:20.700Z,342.98
2023-03-16T09:45:16.135Z,320.54
2023-03-16T09:46:11.750Z,311.11
2023-03-16T09:47:07.434Z,309.35
2023-03-16T09:48:02.776Z,317.74
2023-03-16T09:48:58.434Z,324.02
2023-03-16T09:49:53.665Z,325.62
2023-03-16T09:50:49.836Z,320.22
2023-03-16T09:51:44.764Z,345.88
2023-03-16T09:52:40.333Z,357.95
2023-03-16T09:53:35.759Z,366.34
2023-03-16T09:54:31.289Z,381.27
2023-03-16T09:55:27.290Z,385.68
2023-03-16T09:56:22.435Z,393.18
2023-03-16T09:57:17.902Z,393.88
2023-03-16T09:58:13.318Z,403.65
2023-03-16T09:59:08.919Z,400.50
2023-03-16T10:00:04.291Z,389.51
2023-03-16T10:00:59.984Z,380.61
2023-03-16T10:01:55.313Z,371.74
2023-03-16T10:02:50.778Z,370.90
2023-03-16T10:03:46.389Z,382.14
2023-03-16T10:04:41.704Z,395.28
2023-03-16T10:05:37.210Z,394.58
2023-03-16T10:06:32.807Z,391.10
2023-03-16T10:07:28.317Z,395.04
2023-03-16T10:08:23.942Z,376.43
2023-03-16T10:09:19.326Z,364.71
2023-03-16T10:10:14.785Z,349.93
2023-03-16T10:11:10.268Z,352.19
2023-03-16T10:12:05.876Z,375.57
2023-03-16T10:13:01.368Z,417.29
2023-03-16T10:13:56.982Z,456.11
2023-03-16T10:14:52.496Z,477.33
2023-03-16T10:15:47.888Z,466.97
2023-03-16T10:16:43.380Z,461.80
2023-03-16T10:17:39.014Z,454.25
2023-03-16T10:18:34.510Z,443.96
2023-03-16T10:19:29.901Z,428.83
2023-03-16T10:20:25.326Z,420.71
2023-03-16T10:21:20.721Z,408.10
2023-03-16T10:22:16.351Z,410.61
2023-03-16T10:23:11.731Z,422.05
2023-03-16T10:24:07.266Z,417.29
2023-03-16T10:25:02.632Z,400.26
2023-03-16T10:25:58.125Z,386.35
2023-03-16T10:26:53.572Z,373.86
2023-03-16T10:27:49.092Z,346.61
2023-03-16T10:28:44.874Z,341.20
2023-03-16T10:29:40.218Z,333.91
2023-03-16T10:30:35.717Z,338.73
2023-03-16T10:31:31.363Z,348.08
2023-03-16T10:32:27.635Z,340.14
2023-03-16T10:33:22.223Z,328.56
2023-03-16T10:34:17.907Z,324.02
2023-03-16T10:35:13.426Z,314.39
2023-03-16T10:36:08.892Z,319.60
2023-03-16T10:37:04.402Z,320.22
2023-03-16T10:37:59.930Z,315.30
2023-03-16T10:38:55.380Z,321.79
2023-03-16T10:39:51.199Z,321.48
2023-03-16T10:40:46.505Z,320.54
2023-03-16T10:41:42.046Z,324.66
2023-03-16T10:42:37.516Z,339.79
2023-03-16T10:43:33.015Z,369.64
2023-03-16T10:44:28.581Z,388.82
2023-03-16T10:45:24.067Z,400.98
2023-03-16T10:46:19.643Z,393.18
2023-03-16T10:47:15.145Z,403.90
2023-03-16T10:48:10.609Z,396.45
2023-03-16T10:49:06.405Z,386.79
2023-03-16T10:50:01.485Z,370.90
2023-03-16T10:50:56.852Z,361.50
2023-03-16T10:51:52.218Z,356.78
2023-03-16T10:52:47.872Z,357.56
2023-03-16T10:53:43.259Z,352.19
2023-03-16T10:54:38.935Z,370.06
2023-03-16T10:55:34.293Z,371.74
2023-03-16T10:56:29.724Z,366.75
2023-03-16T10:57:25.202Z,370.48
2023-03-16T10:58:20.706Z,366.75
2023-03-16T10:59:16.412Z,354.85
2023-03-16T11:00:11.796Z,351.06
2023-03-16T11:01:07.329Z,353.33
2023-03-16T11:02:02.866Z,372.58
2023-03-16T11:02:58.333Z,383.68
2023-03-16T11:03:54.055Z,345.88
2023-03-16T11:04:49.289Z,314.09
2023-03-16T11:05:44.737Z,312.00
2023-03-16T11:06:40.136Z,312.89
2023-03-16T11:07:35.681Z,318.67
2023-03-16T11:08:31.334Z,327.25
2023-03-16T11:09:26.972Z,341.91
2023-03-16T11:10:22.317Z,341.20
2023-03-16T11:11:17.813Z,339.44
2023-03-16T11:12:13.354Z,330.88
2023-03-16T11:13:08.826Z,318.98
2023-03-16T11:14:04.526Z,314.09
2023-03-16T11:14:59.797Z,334.25
2023-03-16T11:15:55.255Z,341.56
2023-03-16T11:16:50.951Z,330.21
2023-03-16T11:17:46.239Z,333.23
2023-03-16T11:18:41.921Z,332.22
2023-03-16T11:19:37.391Z,338.73
2023-03-16T11:20:32.932Z,349.56
2023-03-16T11:21:28.185Z,344.42
2023-03-16T11:22:23.602Z,360.70
2023-03-16T11:23:18.959Z,377.30
2023-03-16T11:24:14.440Z,379.53
2023-03-16T11:25:10.206Z,372.16
2023-03-16T11:26:05.535Z,378.17
2023-03-16T11:27:01.097Z,393.41
2023-03-16T11:27:56.486Z,392.49
2023-03-16T11:28:51.975Z,267.93
2023-03-16T11:29:47.609Z,284.17
2023-03-16T11:30:43.142Z,303.35
2023-03-16T11:31:38.518Z,305.04
2023-03-16T11:32:33.955Z,325.95
2023-03-16T11:33:29.459Z,340.14
2023-03-16T11:34:25.049Z,357.17